Nashville, Tennessee
Traffic Map
Current Weather Conditions
Nashville, Tennessee
Clear
Clear
44°
Feels Like: 44°
Wind Chill: 44° Ceiling: Unl
Heat Index: 44° Visibility: 10mi
Dew Point: 41° Wind: 3mph
Humidity: 89% Direction: 360° (N)
Pressure: 30.22in Gusts: 0mph
Raw Report DataKBNA 230853Z 36003KT 10SM CLR 07/05 A3022 RMK AO2 SLP231 T00670050 55000
Traffic Incident Summary
Active as of:
Severity:
Category:
InformationThere was an issue retrieving the traffic information for this location. Please try a different location or try again shortly.
Advertisements
Track Severe Weather on mobile